sensor_id;sensor_type;location;lat;lon;timestamp;P1;durP1;ratioP1;P2;durP2;ratioP2
33453;SDS011;39400;49.744;7.012;2023-02-01T00:00:21;14.10;;;8.48;;
33453;SDS011;39400;49.744;7.012;2023-02-01T00:02:46;25.48;;;11.40;;
33453;SDS011;39400;49.744;7.012;2023-02-01T00:05:11;16.92;;;11.00;;
33453;SDS011;39400;49.744;7.012;2023-02-01T00:07:37;20.40;;;10.60;;
33453;SDS011;39400;49.744;7.012;2023-02-01T00:10:03;17.08;;;9.68;;
33453;SDS011;39400;49.744;7.012;2023-02-01T00:12:30;16.95;;;9.93;;
33453;SDS011;39400;49.744;7.012;2023-02-01T00:14:55;13.93;;;10.30;;
33453;SDS011;39400;49.744;7.012;2023-02-01T00:17:21;16.30;;;9.38;;
33453;SDS011;39400;49.744;7.012;2023-02-01T00:19:46;18.50;;;10.20;;
33453;SDS011;39400;49.744;7.012;2023-02-01T00:22:11;17.15;;;9.80;;
33453;SDS011;39400;49.744;7.012;2023-02-01T00:24:37;16.92;;;9.90;;
33453;SDS011;39400;49.744;7.012;2023-02-01T00:27:02;18.65;;;10.77;;
33453;SDS011;39400;49.744;7.012;2023-02-01T00:29:27;17.60;;;10.02;;
33453;SDS011;39400;49.744;7.012;2023-02-01T00:31:52;25.02;;;11.15;;
33453;SDS011;39400;49.744;7.012;2023-02-01T00:34:18;20.23;;;9.75;;
33453;SDS011;39400;49.744;7.012;2023-02-01T00:36:44;22.67;;;10.27;;
33453;SDS011;39400;49.744;7.012;2023-02-01T00:39:10;23.65;;;10.13;;
33453;SDS011;39400;49.744;7.012;2023-02-01T00:41:36;28.00;;;11.05;;
33453;SDS011;39400;49.744;7.012;2023-02-01T00:44:02;25.83;;;11.35;;
33453;SDS011;39400;49.744;7.012;2023-02-01T00:46:28;36.10;;;12.98;;
33453;SDS011;39400;49.744;7.012;2023-02-01T00:48:54;31.42;;;13.18;;
33453;SDS011;39400;49.744;7.012;2023-02-01T00:51:21;21.42;;;11.52;;
33453;SDS011;39400;49.744;7.012;2023-02-01T00:53:47;19.20;;;11.38;;
33453;SDS011;39400;49.744;7.012;2023-02-01T00:56:13;24.17;;;11.57;;
33453;SDS011;39400;49.744;7.012;2023-02-01T00:58:39;23.17;;;10.52;;
33453;SDS011;39400;49.744;7.012;2023-02-01T01:01:07;22.40;;;10.30;;
33453;SDS011;39400;49.744;7.012;2023-02-01T01:03:36;16.52;;;9.77;;
33453;SDS011;39400;49.744;7.012;2023-02-01T01:06:04;23.65;;;10.07;;
33453;SDS011;39400;49.744;7.012;2023-02-01T01:08:31;21.10;;;11.02;;
33453;SDS011;39400;49.744;7.012;2023-02-01T01:10:57;13.80;;;8.15;;
33453;SDS011;39400;49.744;7.012;2023-02-01T01:13:22;17.77;;;9.43;;
33453;SDS011;39400;49.744;7.012;2023-02-01T01:15:48;17.17;;;9.15;;
33453;SDS011;39400;49.744;7.012;2023-02-01T01:18:13;17.15;;;8.90;;
33453;SDS011;39400;49.744;7.012;2023-02-01T01:20:39;17.27;;;7.72;;
33453;SDS011;39400;49.744;7.012;2023-02-01T01:23:06;15.43;;;7.93;;
33453;SDS011;39400;49.744;7.012;2023-02-01T01:25:32;13.23;;;7.25;;
33453;SDS011;39400;49.744;7.012;2023-02-01T01:27:57;16.65;;;7.68;;
33453;SDS011;39400;49.744;7.012;2023-02-01T01:30:23;14.70;;;7.25;;
33453;SDS011;39400;49.744;7.012;2023-02-01T01:32:49;13.50;;;7.80;;
33453;SDS011;39400;49.744;7.012;2023-02-01T01:35:14;19.02;;;9.52;;
33453;SDS011;39400;49.744;7.012;2023-02-01T01:37:40;15.15;;;8.13;;
33453;SDS011;39400;49.744;7.012;2023-02-01T01:40:05;14.63;;;8.98;;
33453;SDS011;39400;49.744;7.012;2023-02-01T01:42:42;16.77;;;8.68;;
33453;SDS011;39400;49.744;7.012;2023-02-01T01:47:59;16.90;;;8.10;;
33453;SDS011;39400;49.744;7.012;2023-02-01T01:50:36;12.55;;;7.07;;
33453;SDS011;39400;49.744;7.012;2023-02-01T01:53:06;20.25;;;8.50;;
33453;SDS011;39400;49.744;7.012;2023-02-01T01:55:36;18.48;;;9.27;;
33453;SDS011;39400;49.744;7.012;2023-02-01T01:58:08;16.23;;;8.73;;
33453;SDS011;39400;49.744;7.012;2023-02-01T02:00:37;13.35;;;7.00;;
33453;SDS011;39400;49.744;7.012;2023-02-01T02:03:07;15.65;;;7.47;;
33453;SDS011;39400;49.744;7.012;2023-02-01T02:05:38;14.32;;;7.45;;
33453;SDS011;39400;49.744;7.012;2023-02-01T02:08:04;12.20;;;7.75;;
33453;SDS011;39400;49.744;7.012;2023-02-01T02:10:30;13.57;;;7.07;;
33453;SDS011;39400;49.744;7.012;2023-02-01T02:12:56;13.60;;;7.03;;
33453;SDS011;39400;49.744;7.012;2023-02-01T02:15:22;14.05;;;7.47;;
33453;SDS011;39400;49.744;7.012;2023-02-01T02:34:36;15.05;;;8.45;;
33453;SDS011;39400;49.744;7.012;2023-02-01T02:37:29;17.67;;;7.47;;
33453;SDS011;39400;49.744;7.012;2023-02-01T02:42:39;17.73;;;7.72;;
33453;SDS011;39400;49.744;7.012;2023-02-01T02:45:37;14.38;;;7.82;;
33453;SDS011;39400;49.744;7.012;2023-02-01T02:48:10;15.48;;;8.10;;
33453;SDS011;39400;49.744;7.012;2023-02-01T02:53:21;16.58;;;8.77;;
33453;SDS011;39400;49.744;7.012;2023-02-01T02:55:53;11.57;;;8.32;;
33453;SDS011;39400;49.744;7.012;2023-02-01T02:58:19;14.45;;;7.38;;
33453;SDS011;39400;49.744;7.012;2023-02-01T03:00:46;15.43;;;6.50;;
33453;SDS011;39400;49.744;7.012;2023-02-01T03:03:13;12.45;;;6.53;;
33453;SDS011;39400;49.744;7.012;2023-02-01T03:05:43;13.75;;;7.05;;
33453;SDS011;39400;49.744;7.012;2023-02-01T03:08:12;21.77;;;7.97;;
33453;SDS011;39400;49.744;7.012;2023-02-01T03:18:54;18.13;;;6.88;;
33453;SDS011;39400;49.744;7.012;2023-02-01T03:21:22;11.07;;;6.70;;
33453;SDS011;39400;49.744;7.012;2023-02-01T03:23:56;17.70;;;6.72;;
33453;SDS011;39400;49.744;7.012;2023-02-01T03:26:27;14.13;;;7.53;;
33453;SDS011;39400;49.744;7.012;2023-02-01T03:28:57;19.92;;;7.97;;
33453;SDS011;39400;49.744;7.012;2023-02-01T03:31:27;16.42;;;7.47;;
33453;SDS011;39400;49.744;7.012;2023-02-01T03:33:54;18.73;;;8.05;;
33453;SDS011;39400;49.744;7.012;2023-02-01T03:36:23;12.05;;;7.13;;
33453;SDS011;39400;49.744;7.012;2023-02-01T03:39:05;17.88;;;8.75;;
33453;SDS011;39400;49.744;7.012;2023-02-01T03:41:44;20.35;;;9.57;;
33453;SDS011;39400;49.744;7.012;2023-02-01T03:44:23;23.08;;;8.55;;
33453;SDS011;39400;49.744;7.012;2023-02-01T03:49:32;16.42;;;7.68;;
33453;SDS011;39400;49.744;7.012;2023-02-01T03:52:02;15.18;;;7.38;;
33453;SDS011;39400;49.744;7.012;2023-02-01T03:54:30;15.23;;;7.43;;
33453;SDS011;39400;49.744;7.012;2023-02-01T03:56:59;19.10;;;7.57;;
33453;SDS011;39400;49.744;7.012;2023-02-01T03:59:27;10.27;;;5.55;;
33453;SDS011;39400;49.744;7.012;2023-02-01T04:01:53;14.85;;;5.75;;
33453;SDS011;39400;49.744;7.012;2023-02-01T04:04:18;13.90;;;6.03;;
33453;SDS011;39400;49.744;7.012;2023-02-01T04:06:44;13.57;;;5.72;;
33453;SDS011;39400;49.744;7.012;2023-02-01T04:09:09;14.75;;;5.70;;
33453;SDS011;39400;49.744;7.012;2023-02-01T04:11:34;13.50;;;6.88;;
33453;SDS011;39400;49.744;7.012;2023-02-01T04:14:00;17.70;;;8.05;;
33453;SDS011;39400;49.744;7.012;2023-02-01T04:16:25;11.50;;;6.53;;
33453;SDS011;39400;49.744;7.012;2023-02-01T04:18:50;18.52;;;8.13;;
33453;SDS011;39400;49.744;7.012;2023-02-01T04:21:16;19.45;;;9.38;;
33453;SDS011;39400;49.744;7.012;2023-02-01T04:23:41;15.90;;;8.20;;
33453;SDS011;39400;49.744;7.012;2023-02-01T04:26:07;18.27;;;8.00;;
33453;SDS011;39400;49.744;7.012;2023-02-01T04:28:32;13.77;;;6.82;;
33453;SDS011;39400;49.744;7.012;2023-02-01T04:30:57;16.17;;;7.43;;
33453;SDS011;39400;49.744;7.012;2023-02-01T04:33:23;18.67;;;7.18;;
33453;SDS011;39400;49.744;7.012;2023-02-01T04:35:48;25.35;;;8.57;;
33453;SDS011;39400;49.744;7.012;2023-02-01T04:38:13;16.13;;;8.40;;
33453;SDS011;39400;49.744;7.012;2023-02-01T04:40:39;15.50;;;8.38;;
33453;SDS011;39400;49.744;7.012;2023-02-01T04:43:04;13.63;;;7.95;;
33453;SDS011;39400;49.744;7.012;2023-02-01T04:45:30;19.60;;;6.78;;
33453;SDS011;39400;49.744;7.012;2023-02-01T04:47:55;18.27;;;8.38;;
33453;SDS011;39400;49.744;7.012;2023-02-01T04:50:21;15.45;;;7.38;;
33453;SDS011;39400;49.744;7.012;2023-02-01T04:52:46;12.70;;;7.20;;
33453;SDS011;39400;49.744;7.012;2023-02-01T04:55:12;14.45;;;7.22;;
33453;SDS011;39400;49.744;7.012;2023-02-01T04:57:37;15.70;;;7.93;;
33453;SDS011;39400;49.744;7.012;2023-02-01T05:00:03;21.67;;;6.55;;
33453;SDS011;39400;49.744;7.012;2023-02-01T05:02:29;34.88;;;10.77;;
33453;SDS011;39400;49.744;7.012;2023-02-01T05:04:54;16.50;;;6.45;;
33453;SDS011;39400;49.744;7.012;2023-02-01T05:07:19;19.50;;;6.30;;
33453;SDS011;39400;49.744;7.012;2023-02-01T05:09:44;19.35;;;7.07;;
33453;SDS011;39400;49.744;7.012;2023-02-01T05:12:10;20.90;;;6.25;;
33453;SDS011;39400;49.744;7.012;2023-02-01T05:14:35;23.30;;;5.22;;
33453;SDS011;39400;49.744;7.012;2023-02-01T05:17:00;22.17;;;7.68;;
33453;SDS011;39400;49.744;7.012;2023-02-01T05:19:26;18.55;;;5.50;;
33453;SDS011;39400;49.744;7.012;2023-02-01T05:21:51;12.05;;;4.80;;
33453;SDS011;39400;49.744;7.012;2023-02-01T05:24:16;16.63;;;5.38;;
33453;SDS011;39400;49.744;7.012;2023-02-01T05:26:42;19.88;;;8.00;;
33453;SDS011;39400;49.744;7.012;2023-02-01T05:29:08;18.77;;;6.97;;
33453;SDS011;39400;49.744;7.012;2023-02-01T05:31:35;24.33;;;7.60;;
33453;SDS011;39400;49.744;7.012;2023-02-01T05:34:00;15.60;;;6.28;;
33453;SDS011;39400;49.744;7.012;2023-02-01T05:36:29;20.50;;;5.95;;
33453;SDS011;39400;49.744;7.012;2023-02-01T05:38:54;24.98;;;6.47;;
33453;SDS011;39400;49.744;7.012;2023-02-01T05:41:20;18.13;;;6.78;;
33453;SDS011;39400;49.744;7.012;2023-02-01T05:43:45;21.10;;;8.30;;
33453;SDS011;39400;49.744;7.012;2023-02-01T05:46:11;24.73;;;8.25;;
33453;SDS011;39400;49.744;7.012;2023-02-01T05:48:36;23.92;;;7.25;;
33453;SDS011;39400;49.744;7.012;2023-02-01T05:51:01;26.08;;;7.88;;
33453;SDS011;39400;49.744;7.012;2023-02-01T05:53:27;22.65;;;6.35;;
33453;SDS011;39400;49.744;7.012;2023-02-01T05:55:52;22.75;;;6.82;;
33453;SDS011;39400;49.744;7.012;2023-02-01T05:58:17;23.08;;;6.00;;
33453;SDS011;39400;49.744;7.012;2023-02-01T06:00:43;18.80;;;4.78;;
33453;SDS011;39400;49.744;7.012;2023-02-01T06:03:08;14.95;;;5.35;;
33453;SDS011;39400;49.744;7.012;2023-02-01T06:05:33;26.33;;;5.43;;
33453;SDS011;39400;49.744;7.012;2023-02-01T06:07:59;18.00;;;5.68;;
33453;SDS011;39400;49.744;7.012;2023-02-01T06:10:24;19.60;;;4.43;;
33453;SDS011;39400;49.744;7.012;2023-02-01T06:12:49;17.15;;;4.50;;
33453;SDS011;39400;49.744;7.012;2023-02-01T06:15:15;14.93;;;4.78;;
33453;SDS011;39400;49.744;7.012;2023-02-01T06:17:41;14.60;;;5.28;;
33453;SDS011;39400;49.744;7.012;2023-02-01T06:20:06;26.00;;;4.25;;
33453;SDS011;39400;49.744;7.012;2023-02-01T06:22:33;17.70;;;4.32;;
33453;SDS011;39400;49.744;7.012;2023-02-01T06:24:58;19.33;;;4.57;;
33453;SDS011;39400;49.744;7.012;2023-02-01T06:27:23;24.33;;;5.72;;
33453;SDS011;39400;49.744;7.012;2023-02-01T06:29:49;14.75;;;4.38;;
33453;SDS011;39400;49.744;7.012;2023-02-01T06:32:14;22.95;;;6.00;;
33453;SDS011;39400;49.744;7.012;2023-02-01T06:34:40;10.93;;;4.38;;
33453;SDS011;39400;49.744;7.012;2023-02-01T06:37:05;20.00;;;5.60;;
33453;SDS011;39400;49.744;7.012;2023-02-01T06:39:30;18.20;;;5.80;;
33453;SDS011;39400;49.744;7.012;2023-02-01T06:41:56;17.73;;;5.65;;
33453;SDS011;39400;49.744;7.012;2023-02-01T06:44:21;21.42;;;5.07;;
33453;SDS011;39400;49.744;7.012;2023-02-01T06:46:46;16.65;;;4.72;;
33453;SDS011;39400;49.744;7.012;2023-02-01T06:49:11;24.50;;;5.47;;
33453;SDS011;39400;49.744;7.012;2023-02-01T06:51:37;16.40;;;4.68;;
33453;SDS011;39400;49.744;7.012;2023-02-01T06:54:02;17.30;;;4.70;;
33453;SDS011;39400;49.744;7.012;2023-02-01T06:56:27;18.73;;;4.75;;
33453;SDS011;39400;49.744;7.012;2023-02-01T06:58:53;13.15;;;4.50;;
33453;SDS011;39400;49.744;7.012;2023-02-01T07:01:19;7.35;;;3.25;;
33453;SDS011;39400;49.744;7.012;2023-02-01T07:03:49;13.75;;;3.33;;
33453;SDS011;39400;49.744;7.012;2023-02-01T07:06:15;23.38;;;3.67;;
33453;SDS011;39400;49.744;7.012;2023-02-01T07:08:40;14.75;;;2.67;;
33453;SDS011;39400;49.744;7.012;2023-02-01T07:11:07;11.30;;;3.17;;
33453;SDS011;39400;49.744;7.012;2023-02-01T07:13:36;12.98;;;2.33;;
33453;SDS011;39400;49.744;7.012;2023-02-01T07:16:03;13.55;;;3.72;;
33453;SDS011;39400;49.744;7.012;2023-02-01T07:18:31;11.45;;;2.83;;
33453;SDS011;39400;49.744;7.012;2023-02-01T07:20:57;13.85;;;3.20;;
33453;SDS011;39400;49.744;7.012;2023-02-01T07:23:24;24.20;;;3.55;;
33453;SDS011;39400;49.744;7.012;2023-02-01T07:25:53;15.18;;;3.20;;
33453;SDS011;39400;49.744;7.012;2023-02-01T07:28:20;14.63;;;3.33;;
33453;SDS011;39400;49.744;7.012;2023-02-01T07:30:45;15.80;;;3.63;;
33453;SDS011;39400;49.744;7.012;2023-02-01T07:33:10;23.00;;;4.60;;
33453;SDS011;39400;49.744;7.012;2023-02-01T07:35:36;21.20;;;3.20;;
33453;SDS011;39400;49.744;7.012;2023-02-01T07:38:01;18.63;;;3.80;;
33453;SDS011;39400;49.744;7.012;2023-02-01T07:40:26;12.52;;;2.45;;
33453;SDS011;39400;49.744;7.012;2023-02-01T07:42:52;23.27;;;4.95;;
33453;SDS011;39400;49.744;7.012;2023-02-01T07:45:17;20.27;;;6.13;;
33453;SDS011;39400;49.744;7.012;2023-02-01T07:47:42;15.02;;;3.85;;
33453;SDS011;39400;49.744;7.012;2023-02-01T07:50:08;15.98;;;4.50;;
33453;SDS011;39400;49.744;7.012;2023-02-01T07:52:33;10.63;;;3.10;;
33453;SDS011;39400;49.744;7.012;2023-02-01T07:54:58;18.70;;;3.63;;
33453;SDS011;39400;49.744;7.012;2023-02-01T07:57:24;17.50;;;3.40;;
33453;SDS011;39400;49.744;7.012;2023-02-01T07:59:50;13.23;;;3.28;;
33453;SDS011;39400;49.744;7.012;2023-02-01T08:02:15;17.98;;;3.20;;
33453;SDS011;39400;49.744;7.012;2023-02-01T08:04:41;16.58;;;3.03;;
33453;SDS011;39400;49.744;7.012;2023-02-01T08:07:06;21.05;;;4.20;;
33453;SDS011;39400;49.744;7.012;2023-02-01T08:09:31;27.90;;;5.40;;
33453;SDS011;39400;49.744;7.012;2023-02-01T08:11:57;24.98;;;5.43;;
33453;SDS011;39400;49.744;7.012;2023-02-01T08:14:22;22.38;;;4.25;;
33453;SDS011;39400;49.744;7.012;2023-02-01T08:16:47;22.85;;;5.63;;
33453;SDS011;39400;49.744;7.012;2023-02-01T08:19:12;23.02;;;4.05;;
33453;SDS011;39400;49.744;7.012;2023-02-01T08:21:38;27.70;;;4.38;;
33453;SDS011;39400;49.744;7.012;2023-02-01T08:24:04;16.85;;;3.60;;
33453;SDS011;39400;49.744;7.012;2023-02-01T08:26:30;19.50;;;4.72;;
33453;SDS011;39400;49.744;7.012;2023-02-01T08:28:57;16.23;;;2.72;;
33453;SDS011;39400;49.744;7.012;2023-02-01T08:31:24;21.60;;;3.67;;
33453;SDS011;39400;49.744;7.012;2023-02-01T08:33:53;19.17;;;3.47;;
33453;SDS011;39400;49.744;7.012;2023-02-01T08:36:20;12.63;;;2.53;;
33453;SDS011;39400;49.744;7.012;2023-02-01T08:38:46;18.20;;;2.85;;
33453;SDS011;39400;49.744;7.012;2023-02-01T08:41:12;18.55;;;3.33;;
33453;SDS011;39400;49.744;7.012;2023-02-01T08:43:40;16.23;;;2.65;;
33453;SDS011;39400;49.744;7.012;2023-02-01T08:46:06;19.88;;;3.50;;
33453;SDS011;39400;49.744;7.012;2023-02-01T08:48:32;23.83;;;3.72;;
33453;SDS011;39400;49.744;7.012;2023-02-01T08:51:00;15.95;;;3.55;;
33453;SDS011;39400;49.744;7.012;2023-02-01T08:53:26;19.15;;;4.68;;
33453;SDS011;39400;49.744;7.012;2023-02-01T08:55:52;32.05;;;8.75;;
33453;SDS011;39400;49.744;7.012;2023-02-01T08:58:17;25.13;;;5.85;;
33453;SDS011;39400;49.744;7.012;2023-02-01T09:00:43;20.23;;;4.80;;
33453;SDS011;39400;49.744;7.012;2023-02-01T09:03:09;22.17;;;4.18;;
33453;SDS011;39400;49.744;7.012;2023-02-01T09:05:35;16.83;;;4.22;;
33453;SDS011;39400;49.744;7.012;2023-02-01T09:08:01;20.48;;;4.30;;
33453;SDS011;39400;49.744;7.012;2023-02-01T09:10:26;24.42;;;3.58;;
33453;SDS011;39400;49.744;7.012;2023-02-01T09:12:51;17.55;;;4.07;;
33453;SDS011;39400;49.744;7.012;2023-02-01T09:15:17;18.13;;;3.65;;
33453;SDS011;39400;49.744;7.012;2023-02-01T09:18:01;23.90;;;5.72;;
33453;SDS011;39400;49.744;7.012;2023-02-01T09:20:26;27.05;;;9.68;;
33453;SDS011;39400;49.744;7.012;2023-02-01T09:22:52;23.38;;;6.13;;
33453;SDS011;39400;49.744;7.012;2023-02-01T09:25:18;26.75;;;6.25;;
33453;SDS011;39400;49.744;7.012;2023-02-01T09:27:44;22.55;;;5.18;;
33453;SDS011;39400;49.744;7.012;2023-02-01T09:30:09;19.10;;;4.50;;
33453;SDS011;39400;49.744;7.012;2023-02-01T09:32:35;23.95;;;6.40;;
33453;SDS011;39400;49.744;7.012;2023-02-01T09:35:00;30.63;;;8.02;;
33453;SDS011;39400;49.744;7.012;2023-02-01T09:37:26;19.45;;;6.38;;
33453;SDS011;39400;49.744;7.012;2023-02-01T09:39:51;25.85;;;8.52;;
33453;SDS011;39400;49.744;7.012;2023-02-01T09:45:10;19.50;;;6.80;;
33453;SDS011;39400;49.744;7.012;2023-02-01T09:47:43;19.98;;;3.90;;
33453;SDS011;39400;49.744;7.012;2023-02-01T09:50:16;25.88;;;4.85;;
33453;SDS011;39400;49.744;7.012;2023-02-01T09:52:48;20.70;;;3.85;;
33453;SDS011;39400;49.744;7.012;2023-02-01T09:55:32;23.02;;;6.35;;
33453;SDS011;39400;49.744;7.012;2023-02-01T10:00:51;21.48;;;6.47;;
33453;SDS011;39400;49.744;7.012;2023-02-01T10:03:20;23.35;;;4.47;;
33453;SDS011;39400;49.744;7.012;2023-02-01T10:08:57;14.23;;;5.45;;
33453;SDS011;39400;49.744;7.012;2023-02-01T10:11:32;20.50;;;5.07;;
33453;SDS011;39400;49.744;7.012;2023-02-01T10:14:03;20.33;;;3.22;;
33453;SDS011;39400;49.744;7.012;2023-02-01T10:16:44;16.00;;;4.30;;
33453;SDS011;39400;49.744;7.012;2023-02-01T10:22:25;18.45;;;4.97;;
33453;SDS011;39400;49.744;7.012;2023-02-01T10:27:47;15.23;;;2.67;;
33453;SDS011;39400;49.744;7.012;2023-02-01T10:32:38;28.23;;;6.07;;
33453;SDS011;39400;49.744;7.012;2023-02-01T10:35:16;34.10;;;4.63;;
33453;SDS011;39400;49.744;7.012;2023-02-01T10:37:43;20.33;;;4.82;;
33453;SDS011;39400;49.744;7.012;2023-02-01T10:42:40;25.77;;;3.42;;
33453;SDS011;39400;49.744;7.012;2023-02-01T10:45:11;15.38;;;3.42;;
33453;SDS011;39400;49.744;7.012;2023-02-01T10:47:40;18.90;;;3.55;;
33453;SDS011;39400;49.744;7.012;2023-02-01T10:50:16;18.60;;;4.18;;
33453;SDS011;39400;49.744;7.012;2023-02-01T10:52:48;16.75;;;3.63;;
33453;SDS011;39400;49.744;7.012;2023-02-01T10:58:05;21.85;;;4.45;;
33453;SDS011;39400;49.744;7.012;2023-02-01T11:00:41;24.77;;;7.93;;
33453;SDS011;39400;49.744;7.012;2023-02-01T11:03:19;20.73;;;4.68;;
33453;SDS011;39400;49.744;7.012;2023-02-01T11:05:46;21.00;;;4.32;;
33453;SDS011;39400;49.744;7.012;2023-02-01T11:08:14;18.05;;;4.55;;
33453;SDS011;39400;49.744;7.012;2023-02-01T11:10:42;19.92;;;4.78;;
33453;SDS011;39400;49.744;7.012;2023-02-01T11:13:14;19.92;;;4.25;;
33453;SDS011;39400;49.744;7.012;2023-02-01T11:15:43;13.40;;;3.45;;
33453;SDS011;39400;49.744;7.012;2023-02-01T11:18:19;21.08;;;3.25;;
33453;SDS011;39400;49.744;7.012;2023-02-01T11:20:49;25.25;;;5.05;;
33453;SDS011;39400;49.744;7.012;2023-02-01T11:23:15;23.27;;;7.57;;
33453;SDS011;39400;49.744;7.012;2023-02-01T11:25:51;28.00;;;8.57;;
33453;SDS011;39400;49.744;7.012;2023-02-01T11:28:19;18.65;;;5.90;;
33453;SDS011;39400;49.744;7.012;2023-02-01T11:30:48;18.25;;;5.63;;
33453;SDS011;39400;49.744;7.012;2023-02-01T11:33:17;29.23;;;6.38;;
33453;SDS011;39400;49.744;7.012;2023-02-01T11:35:45;20.87;;;6.83;;
33453;SDS011;39400;49.744;7.012;2023-02-01T11:41:01;18.30;;;3.90;;
33453;SDS011;39400;49.744;7.012;2023-02-01T11:43:37;23.98;;;6.47;;
33453;SDS011;39400;49.744;7.012;2023-02-01T11:46:18;16.88;;;3.35;;
33453;SDS011;39400;49.744;7.012;2023-02-01T11:48:46;21.92;;;6.90;;
33453;SDS011;39400;49.744;7.012;2023-02-01T12:10:20;37.97;;;6.75;;
33453;SDS011;39400;49.744;7.012;2023-02-01T12:12:55;28.02;;;5.60;;
33453;SDS011;39400;49.744;7.012;2023-02-01T12:21:23;13.10;;;2.85;;
33453;SDS011;39400;49.744;7.012;2023-02-01T12:26:47;33.40;;;10.15;;
33453;SDS011;39400;49.744;7.012;2023-02-01T12:29:29;27.52;;;5.55;;
33453;SDS011;39400;49.744;7.012;2023-02-01T12:32:19;25.42;;;3.38;;
33453;SDS011;39400;49.744;7.012;2023-02-01T12:43:03;16.98;;;2.78;;
33453;SDS011;39400;49.744;7.012;2023-02-01T12:45:40;25.92;;;3.72;;
33453;SDS011;39400;49.744;7.012;2023-02-01T12:51:02;19.42;;;3.58;;
33453;SDS011;39400;49.744;7.012;2023-02-01T12:53:51;12.77;;;2.80;;
33453;SDS011;39400;49.744;7.012;2023-02-01T12:56:34;10.77;;;2.80;;
33453;SDS011;39400;49.744;7.012;2023-02-01T12:59:13;13.60;;;2.60;;
33453;SDS011;39400;49.744;7.012;2023-02-01T13:01:49;10.10;;;2.47;;
33453;SDS011;39400;49.744;7.012;2023-02-01T13:04:20;9.90;;;3.35;;
33453;SDS011;39400;49.744;7.012;2023-02-01T13:07:11;14.35;;;4.03;;
33453;SDS011;39400;49.744;7.012;2023-02-01T13:12:35;10.25;;;2.67;;
33453;SDS011;39400;49.744;7.012;2023-02-01T13:15:20;18.05;;;4.07;;
33453;SDS011;39400;49.744;7.012;2023-02-01T13:17:54;15.15;;;3.72;;
33453;SDS011;39400;49.744;7.012;2023-02-01T13:25:53;16.70;;;3.87;;
33453;SDS011;39400;49.744;7.012;2023-02-01T13:28:37;21.52;;;4.65;;
33453;SDS011;39400;49.744;7.012;2023-02-01T13:31:28;8.60;;;2.20;;
33453;SDS011;39400;49.744;7.012;2023-02-01T13:37:14;13.00;;;2.65;;
33453;SDS011;39400;49.744;7.012;2023-02-01T13:42:55;16.15;;;3.65;;
33453;SDS011;39400;49.744;7.012;2023-02-01T13:45:23;17.13;;;3.22;;
33453;SDS011;39400;49.744;7.012;2023-02-01T13:52:55;23.50;;;5.03;;
33453;SDS011;39400;49.744;7.012;2023-02-01T13:55:28;17.83;;;4.40;;
33453;SDS011;39400;49.744;7.012;2023-02-01T13:58:01;18.42;;;4.03;;
33453;SDS011;39400;49.744;7.012;2023-02-01T14:00:34;13.35;;;3.17;;
33453;SDS011;39400;49.744;7.012;2023-02-01T14:13:30;12.83;;;3.17;;
33453;SDS011;39400;49.744;7.012;2023-02-01T14:21:45;16.40;;;5.30;;
33453;SDS011;39400;49.744;7.012;2023-02-01T14:24:19;17.33;;;3.88;;
33453;SDS011;39400;49.744;7.012;2023-02-01T14:26:52;17.60;;;3.67;;
33453;SDS011;39400;49.744;7.012;2023-02-01T14:29:35;18.77;;;3.33;;
33453;SDS011;39400;49.744;7.012;2023-02-01T14:32:11;18.75;;;3.42;;
33453;SDS011;39400;49.744;7.012;2023-02-01T14:34:56;12.18;;;2.95;;
33453;SDS011;39400;49.744;7.012;2023-02-01T14:37:25;15.45;;;4.22;;
33453;SDS011;39400;49.744;7.012;2023-02-01T14:42:42;15.32;;;2.75;;
33453;SDS011;39400;49.744;7.012;2023-02-01T14:47:42;14.60;;;2.88;;
33453;SDS011;39400;49.744;7.012;2023-02-01T14:53:06;14.43;;;3.30;;
33453;SDS011;39400;49.744;7.012;2023-02-01T14:58:16;19.70;;;4.35;;
33453;SDS011;39400;49.744;7.012;2023-02-01T15:01:13;14.48;;;3.28;;
33453;SDS011;39400;49.744;7.012;2023-02-01T15:09:07;15.05;;;4.63;;
33453;SDS011;39400;49.744;7.012;2023-02-01T15:14:20;18.77;;;3.22;;
33453;SDS011;39400;49.744;7.012;2023-02-01T15:16:46;15.95;;;2.88;;
33453;SDS011;39400;49.744;7.012;2023-02-01T15:19:12;21.52;;;3.85;;
33453;SDS011;39400;49.744;7.012;2023-02-01T15:21:43;20.63;;;4.10;;
33453;SDS011;39400;49.744;7.012;2023-02-01T15:24:10;12.50;;;2.53;;
33453;SDS011;39400;49.744;7.012;2023-02-01T15:26:36;19.88;;;4.35;;
33453;SDS011;39400;49.744;7.012;2023-02-01T15:29:01;29.85;;;8.90;;
33453;SDS011;39400;49.744;7.012;2023-02-01T15:31:37;27.13;;;5.18;;
33453;SDS011;39400;49.744;7.012;2023-02-01T15:34:10;17.58;;;3.75;;
33453;SDS011;39400;49.744;7.012;2023-02-01T15:36:36;19.33;;;2.38;;
33453;SDS011;39400;49.744;7.012;2023-02-01T15:41:48;11.32;;;2.17;;
33453;SDS011;39400;49.744;7.012;2023-02-01T15:44:21;17.67;;;3.22;;
33453;SDS011;39400;49.744;7.012;2023-02-01T15:46:51;16.02;;;4.03;;
33453;SDS011;39400;49.744;7.012;2023-02-01T15:49:18;15.75;;;3.47;;
33453;SDS011;39400;49.744;7.012;2023-02-01T15:51:45;19.83;;;3.03;;
33453;SDS011;39400;49.744;7.012;2023-02-01T15:54:13;18.13;;;2.83;;
33453;SDS011;39400;49.744;7.012;2023-02-01T15:56:42;13.13;;;2.78;;
33453;SDS011;39400;49.744;7.012;2023-02-01T15:59:17;15.77;;;2.78;;
33453;SDS011;39400;49.744;7.012;2023-02-01T16:01:45;12.02;;;2.42;;
33453;SDS011;39400;49.744;7.012;2023-02-01T16:06:48;16.08;;;4.00;;
33453;SDS011;39400;49.744;7.012;2023-02-01T16:09:22;13.65;;;2.72;;
33453;SDS011;39400;49.744;7.012;2023-02-01T16:14:19;14.45;;;2.25;;
33453;SDS011;39400;49.744;7.012;2023-02-01T16:16:45;14.07;;;2.47;;
33453;SDS011;39400;49.744;7.012;2023-02-01T16:19:10;19.40;;;2.85;;
33453;SDS011;39400;49.744;7.012;2023-02-01T16:21:35;22.85;;;3.85;;
33453;SDS011;39400;49.744;7.012;2023-02-01T16:24:01;17.45;;;3.25;;
33453;SDS011;39400;49.744;7.012;2023-02-01T16:26:26;14.60;;;2.70;;
33453;SDS011;39400;49.744;7.012;2023-02-01T16:28:51;13.45;;;2.80;;
33453;SDS011;39400;49.744;7.012;2023-02-01T16:31:17;20.13;;;3.40;;
33453;SDS011;39400;49.744;7.012;2023-02-01T16:33:49;11.57;;;2.22;;
33453;SDS011;39400;49.744;7.012;2023-02-01T16:36:15;20.10;;;3.30;;
33453;SDS011;39400;49.744;7.012;2023-02-01T16:38:41;14.32;;;2.45;;
33453;SDS011;39400;49.744;7.012;2023-02-01T16:41:09;14.93;;;3.20;;
33453;SDS011;39400;49.744;7.012;2023-02-01T16:43:37;15.70;;;3.10;;
33453;SDS011;39400;49.744;7.012;2023-02-01T16:46:02;22.40;;;4.63;;
33453;SDS011;39400;49.744;7.012;2023-02-01T16:48:48;17.80;;;3.00;;
33453;SDS011;39400;49.744;7.012;2023-02-01T16:51:16;16.83;;;3.63;;
33453;SDS011;39400;49.744;7.012;2023-02-01T16:53:42;14.85;;;2.90;;
33453;SDS011;39400;49.744;7.012;2023-02-01T16:56:18;31.08;;;3.30;;
33453;SDS011;39400;49.744;7.012;2023-02-01T16:58:47;21.40;;;4.18;;
33453;SDS011;39400;49.744;7.012;2023-02-01T17:01:13;14.82;;;2.00;;
33453;SDS011;39400;49.744;7.012;2023-02-01T17:03:40;18.15;;;3.00;;
33453;SDS011;39400;49.744;7.012;2023-02-01T17:06:07;16.20;;;2.80;;
33453;SDS011;39400;49.744;7.012;2023-02-01T17:08:35;23.63;;;3.00;;
33453;SDS011;39400;49.744;7.012;2023-02-01T17:11:03;15.50;;;3.15;;
33453;SDS011;39400;49.744;7.012;2023-02-01T17:13:29;18.35;;;3.20;;
33453;SDS011;39400;49.744;7.012;2023-02-01T17:15:59;25.60;;;3.92;;
33453;SDS011;39400;49.744;7.012;2023-02-01T17:18:27;21.75;;;4.07;;
33453;SDS011;39400;49.744;7.012;2023-02-01T17:20:54;22.40;;;5.65;;
33453;SDS011;39400;49.744;7.012;2023-02-01T17:23:19;16.63;;;3.63;;